sensor_id;sensor_type;location;lat;lon;timestamp;temperature;humidity
2391;DHT22;22957;50.824;4.360;2023-10-19T00:00:47;17.40;99.90
2391;DHT22;22957;50.824;4.360;2023-10-19T00:03:17;17.70;99.90
2391;DHT22;22957;50.824;4.360;2023-10-19T00:05:44;17.70;99.90
2391;DHT22;22957;50.824;4.360;2023-10-19T00:08:11;17.80;99.90
2391;DHT22;22957;50.824;4.360;2023-10-19T00:10:48;17.60;99.90
2391;DHT22;22957;50.824;4.360;2023-10-19T00:13:19;17.80;99.90
2391;DHT22;22957;50.824;4.360;2023-10-19T00:15:45;17.70;99.90
2391;DHT22;22957;50.824;4.360;2023-10-19T00:18:15;17.90;99.90
2391;DHT22;22957;50.824;4.360;2023-10-19T00:20:40;17.70;99.90
2391;DHT22;22957;50.824;4.360;2023-10-19T00:23:06;17.50;99.90
2391;DHT22;22957;50.824;4.360;2023-10-19T00:25:32;17.70;99.90
2391;DHT22;22957;50.824;4.360;2023-10-19T00:28:07;17.50;99.90
2391;DHT22;22957;50.824;4.360;2023-10-19T00:30:32;17.60;99.90
2391;DHT22;22957;50.824;4.360;2023-10-19T00:33:01;17.60;99.90
2391;DHT22;22957;50.824;4.360;2023-10-19T00:35:41;17.50;99.90
2391;DHT22;22957;50.824;4.360;2023-10-19T00:38:13;17.60;99.90
2391;DHT22;22957;50.824;4.360;2023-10-19T00:40:58;17.50;99.90
2391;DHT22;22957;50.824;4.360;2023-10-19T00:43:37;17.70;99.90
2391;DHT22;22957;50.824;4.360;2023-10-19T00:46:12;17.70;99.90
2391;DHT22;22957;50.824;4.360;2023-10-19T00:48:55;17.60;99.90
2391;DHT22;22957;50.824;4.360;2023-10-19T00:51:27;17.70;99.90
2391;DHT22;22957;50.824;4.360;2023-10-19T00:54:08;17.70;99.90
2391;DHT22;22957;50.824;4.360;2023-10-19T00:56:36;17.80;99.90
2391;DHT22;22957;50.824;4.360;2023-10-19T00:59:03;17.90;99.90
2391;DHT22;22957;50.824;4.360;2023-10-19T01:01:45;17.80;99.90
2391;DHT22;22957;50.824;4.360;2023-10-19T01:04:13;17.70;99.90
2391;DHT22;22957;50.824;4.360;2023-10-19T01:06:42;17.40;99.90
2391;DHT22;22957;50.824;4.360;2023-10-19T01:09:27;17.60;99.90
2391;DHT22;22957;50.824;4.360;2023-10-19T01:11:53;17.70;99.90
2391;DHT22;22957;50.824;4.360;2023-10-19T01:14:22;17.80;99.90
2391;DHT22;22957;50.824;4.360;2023-10-19T01:16:53;17.50;99.90
2391;DHT22;22957;50.824;4.360;2023-10-19T01:19:22;17.60;99.90
2391;DHT22;22957;50.824;4.360;2023-10-19T01:21:49;17.20;99.90
2391;DHT22;22957;50.824;4.360;2023-10-19T01:24:21;17.70;99.90
2391;DHT22;22957;50.824;4.360;2023-10-19T01:27:06;17.60;99.90
2391;DHT22;22957;50.824;4.360;2023-10-19T01:29:35;17.40;99.90
2391;DHT22;22957;50.824;4.360;2023-10-19T01:32:03;17.40;99.90
2391;DHT22;22957;50.824;4.360;2023-10-19T01:34:32;17.70;99.90
2391;DHT22;22957;50.824;4.360;2023-10-19T01:37:01;17.60;99.90
2391;DHT22;22957;50.824;4.360;2023-10-19T01:39:31;17.50;99.90
2391;DHT22;22957;50.824;4.360;2023-10-19T01:41:57;17.90;99.90
2391;DHT22;22957;50.824;4.360;2023-10-19T01:44:23;17.50;99.90
2391;DHT22;22957;50.824;4.360;2023-10-19T01:46:50;17.60;99.90
2391;DHT22;22957;50.824;4.360;2023-10-19T01:49:16;17.70;99.90
2391;DHT22;22957;50.824;4.360;2023-10-19T01:51:51;17.60;99.90
2391;DHT22;22957;50.824;4.360;2023-10-19T01:54:17;17.50;99.90
2391;DHT22;22957;50.824;4.360;2023-10-19T01:56:49;17.60;99.90
2391;DHT22;22957;50.824;4.360;2023-10-19T01:59:16;17.50;99.90
2391;DHT22;22957;50.824;4.360;2023-10-19T02:01:42;17.40;99.90
2391;DHT22;22957;50.824;4.360;2023-10-19T02:04:10;17.40;99.90
2391;DHT22;22957;50.824;4.360;2023-10-19T02:06:38;17.50;99.90
2391;DHT22;22957;50.824;4.360;2023-10-19T02:09:08;17.40;99.90
2391;DHT22;22957;50.824;4.360;2023-10-19T02:11:48;17.60;99.90
2391;DHT22;22957;50.824;4.360;2023-10-19T02:14:15;17.50;99.90
2391;DHT22;22957;50.824;4.360;2023-10-19T02:16:42;17.40;99.90
2391;DHT22;22957;50.824;4.360;2023-10-19T02:19:12;17.40;99.90
2391;DHT22;22957;50.824;4.360;2023-10-19T02:21:37;17.40;99.90
2391;DHT22;22957;50.824;4.360;2023-10-19T02:24:10;17.30;99.90
2391;DHT22;22957;50.824;4.360;2023-10-19T02:26:43;17.40;99.90
2391;DHT22;22957;50.824;4.360;2023-10-19T02:29:10;17.20;99.90
2391;DHT22;22957;50.824;4.360;2023-10-19T02:31:37;17.20;99.90
2391;DHT22;22957;50.824;4.360;2023-10-19T02:34:03;17.40;99.90
2391;DHT22;22957;50.824;4.360;2023-10-19T02:36:33;17.30;99.90
2391;DHT22;22957;50.824;4.360;2023-10-19T02:39:03;17.30;99.90
2391;DHT22;22957;50.824;4.360;2023-10-19T02:41:36;17.10;99.90
2391;DHT22;22957;50.824;4.360;2023-10-19T02:44:04;17.20;99.90
2391;DHT22;22957;50.824;4.360;2023-10-19T02:46:30;17.00;99.90
2391;DHT22;22957;50.824;4.360;2023-10-19T02:49:00;17.00;99.90
2391;DHT22;22957;50.824;4.360;2023-10-19T02:51:26;17.30;99.90
2391;DHT22;22957;50.824;4.360;2023-10-19T02:53:51;17.20;99.90
2391;DHT22;22957;50.824;4.360;2023-10-19T02:56:17;17.20;99.90
2391;DHT22;22957;50.824;4.360;2023-10-19T02:58:45;17.30;99.90
2391;DHT22;22957;50.824;4.360;2023-10-19T03:01:21;17.00;99.90
2391;DHT22;22957;50.824;4.360;2023-10-19T03:03:54;16.80;99.90
2391;DHT22;22957;50.824;4.360;2023-10-19T03:06:25;17.00;99.90
2391;DHT22;22957;50.824;4.360;2023-10-19T03:08:50;16.90;99.90
2391;DHT22;22957;50.824;4.360;2023-10-19T03:11:30;17.10;99.90
2391;DHT22;22957;50.824;4.360;2023-10-19T03:13:59;16.90;99.90
2391;DHT22;22957;50.824;4.360;2023-10-19T03:16:25;16.90;99.90
2391;DHT22;22957;50.824;4.360;2023-10-19T03:18:55;16.90;99.90
2391;DHT22;22957;50.824;4.360;2023-10-19T03:21:21;17.10;99.90
2391;DHT22;22957;50.824;4.360;2023-10-19T03:23:52;17.10;99.90
2391;DHT22;22957;50.824;4.360;2023-10-19T03:26:19;17.20;99.90
2391;DHT22;22957;50.824;4.360;2023-10-19T03:29:02;17.30;99.90
2391;DHT22;22957;50.824;4.360;2023-10-19T03:31:41;17.20;99.90
2391;DHT22;22957;50.824;4.360;2023-10-19T03:34:12;17.10;99.90
2391;DHT22;22957;50.824;4.360;2023-10-19T03:36:44;17.10;99.90
2391;DHT22;22957;50.824;4.360;2023-10-19T03:39:10;17.40;99.90
2391;DHT22;22957;50.824;4.360;2023-10-19T03:41:41;17.20;99.90
2391;DHT22;22957;50.824;4.360;2023-10-19T03:44:13;17.30;99.90
2391;DHT22;22957;50.824;4.360;2023-10-19T03:46:48;17.30;99.90
2391;DHT22;22957;50.824;4.360;2023-10-19T03:49:23;17.30;99.90
2391;DHT22;22957;50.824;4.360;2023-10-19T03:51:56;17.30;99.90
2391;DHT22;22957;50.824;4.360;2023-10-19T03:54:26;17.40;99.90
2391;DHT22;22957;50.824;4.360;2023-10-19T03:56:53;17.30;99.90
2391;DHT22;22957;50.824;4.360;2023-10-19T03:59:20;17.50;99.90
2391;DHT22;22957;50.824;4.360;2023-10-19T04:01:46;17.10;99.90
2391;DHT22;22957;50.824;4.360;2023-10-19T04:04:12;17.20;99.90
2391;DHT22;22957;50.824;4.360;2023-10-19T04:06:39;17.30;99.90
2391;DHT22;22957;50.824;4.360;2023-10-19T04:09:05;17.20;99.90
2391;DHT22;22957;50.824;4.360;2023-10-19T04:11:32;17.10;99.90
2391;DHT22;22957;50.824;4.360;2023-10-19T04:14:30;17.30;99.90
2391;DHT22;22957;50.824;4.360;2023-10-19T04:16:56;17.40;99.90
2391;DHT22;22957;50.824;4.360;2023-10-19T04:19:21;17.50;99.90
2391;DHT22;22957;50.824;4.360;2023-10-19T04:21:47;17.20;99.90
2391;DHT22;22957;50.824;4.360;2023-10-19T04:24:13;17.50;99.90
2391;DHT22;22957;50.824;4.360;2023-10-19T04:26:40;17.50;99.90
2391;DHT22;22957;50.824;4.360;2023-10-19T04:29:06;17.30;99.90
2391;DHT22;22957;50.824;4.360;2023-10-19T04:31:43;17.30;99.90
2391;DHT22;22957;50.824;4.360;2023-10-19T04:34:16;17.30;99.90
2391;DHT22;22957;50.824;4.360;2023-10-19T04:36:46;17.20;99.90
2391;DHT22;22957;50.824;4.360;2023-10-19T04:39:12;17.50;99.90
2391;DHT22;22957;50.824;4.360;2023-10-19T04:41:39;17.50;99.90
2391;DHT22;22957;50.824;4.360;2023-10-19T04:44:05;17.50;99.90
2391;DHT22;22957;50.824;4.360;2023-10-19T04:46:34;17.70;99.90
2391;DHT22;22957;50.824;4.360;2023-10-19T04:49:00;17.40;99.90
2391;DHT22;22957;50.824;4.360;2023-10-19T04:51:25;17.50;99.90
2391;DHT22;22957;50.824;4.360;2023-10-19T04:53:51;17.60;99.90
2391;DHT22;22957;50.824;4.360;2023-10-19T04:56:17;17.50;99.90
2391;DHT22;22957;50.824;4.360;2023-10-19T04:58:42;17.50;99.90
2391;DHT22;22957;50.824;4.360;2023-10-19T05:01:08;17.70;99.90
2391;DHT22;22957;50.824;4.360;2023-10-19T05:03:37;17.60;99.90
2391;DHT22;22957;50.824;4.360;2023-10-19T05:06:03;17.50;99.90
2391;DHT22;22957;50.824;4.360;2023-10-19T05:08:28;17.50;99.90
2391;DHT22;22957;50.824;4.360;2023-10-19T05:10:56;17.90;99.90
2391;DHT22;22957;50.824;4.360;2023-10-19T05:13:23;17.60;99.90
2391;DHT22;22957;50.824;4.360;2023-10-19T05:15:48;17.50;99.90
2391;DHT22;22957;50.824;4.360;2023-10-19T05:18:14;17.30;99.90
2391;DHT22;22957;50.824;4.360;2023-10-19T05:20:39;17.50;99.90
2391;DHT22;22957;50.824;4.360;2023-10-19T05:23:07;17.30;99.90
2391;DHT22;22957;50.824;4.360;2023-10-19T05:25:34;17.50;99.90
2391;DHT22;22957;50.824;4.360;2023-10-19T05:28:02;18.00;99.90
2391;DHT22;22957;50.824;4.360;2023-10-19T05:30:28;17.90;99.90
2391;DHT22;22957;50.824;4.360;2023-10-19T05:32:55;17.40;99.90
2391;DHT22;22957;50.824;4.360;2023-10-19T05:35:22;17.60;99.90
2391;DHT22;22957;50.824;4.360;2023-10-19T05:37:49;17.60;99.90
2391;DHT22;22957;50.824;4.360;2023-10-19T05:40:15;17.50;99.90
2391;DHT22;22957;50.824;4.360;2023-10-19T05:42:41;17.60;99.90
2391;DHT22;22957;50.824;4.360;2023-10-19T05:45:07;17.50;99.90
2391;DHT22;22957;50.824;4.360;2023-10-19T05:47:32;17.50;99.90
2391;DHT22;22957;50.824;4.360;2023-10-19T05:49:58;17.30;99.90
2391;DHT22;22957;50.824;4.360;2023-10-19T05:52:24;17.70;99.90
2391;DHT22;22957;50.824;4.360;2023-10-19T05:54:49;17.60;99.90
2391;DHT22;22957;50.824;4.360;2023-10-19T05:57:15;17.60;99.90
2391;DHT22;22957;50.824;4.360;2023-10-19T05:59:40;17.80;99.90
2391;DHT22;22957;50.824;4.360;2023-10-19T06:02:06;17.70;99.90
2391;DHT22;22957;50.824;4.360;2023-10-19T06:04:33;17.70;99.90
2391;DHT22;22957;50.824;4.360;2023-10-19T06:06:58;17.90;99.90
2391;DHT22;22957;50.824;4.360;2023-10-19T06:09:24;17.80;99.90
2391;DHT22;22957;50.824;4.360;2023-10-19T06:11:55;17.80;99.90
2391;DHT22;22957;50.824;4.360;2023-10-19T06:14:20;17.70;99.90
2391;DHT22;22957;50.824;4.360;2023-10-19T06:16:46;17.60;99.90
2391;DHT22;22957;50.824;4.360;2023-10-19T06:19:11;17.50;99.90
2391;DHT22;22957;50.824;4.360;2023-10-19T06:21:37;17.30;99.90
2391;DHT22;22957;50.824;4.360;2023-10-19T06:24:03;17.30;99.90
2391;DHT22;22957;50.824;4.360;2023-10-19T06:26:29;17.30;99.90
2391;DHT22;22957;50.824;4.360;2023-10-19T06:28:54;17.30;99.90
2391;DHT22;22957;50.824;4.360;2023-10-19T06:31:27;17.20;99.90
2391;DHT22;22957;50.824;4.360;2023-10-19T06:33:53;17.30;99.90
2391;DHT22;22957;50.824;4.360;2023-10-19T06:36:19;17.30;99.90
2391;DHT22;22957;50.824;4.360;2023-10-19T06:38:45;17.50;99.90
2391;DHT22;22957;50.824;4.360;2023-10-19T06:41:12;17.60;99.90
2391;DHT22;22957;50.824;4.360;2023-10-19T06:43:39;17.20;99.90
2391;DHT22;22957;50.824;4.360;2023-10-19T06:46:05;17.20;99.90
2391;DHT22;22957;50.824;4.360;2023-10-19T06:48:32;17.10;99.90
2391;DHT22;22957;50.824;4.360;2023-10-19T06:50:57;17.00;99.90
2391;DHT22;22957;50.824;4.360;2023-10-19T06:53:23;17.10;99.90
2391;DHT22;22957;50.824;4.360;2023-10-19T06:55:49;17.20;99.90
2391;DHT22;22957;50.824;4.360;2023-10-19T06:58:14;17.10;99.90
2391;DHT22;22957;50.824;4.360;2023-10-19T07:00:40;17.50;99.90
2391;DHT22;22957;50.824;4.360;2023-10-19T07:03:10;18.20;99.90
2391;DHT22;22957;50.824;4.360;2023-10-19T07:05:36;18.60;99.90
2391;DHT22;22957;50.824;4.360;2023-10-19T07:08:02;19.00;99.90
2391;DHT22;22957;50.824;4.360;2023-10-19T07:10:32;19.50;99.90
2391;DHT22;22957;50.824;4.360;2023-10-19T07:12:59;19.70;99.90
2391;DHT22;22957;50.824;4.360;2023-10-19T07:15:25;19.70;99.90
2391;DHT22;22957;50.824;4.360;2023-10-19T07:17:52;19.30;99.90
2391;DHT22;22957;50.824;4.360;2023-10-19T07:20:19;19.00;99.90
2391;DHT22;22957;50.824;4.360;2023-10-19T07:22:55;18.80;99.90
2391;DHT22;22957;50.824;4.360;2023-10-19T07:25:22;18.40;99.90
2391;DHT22;22957;50.824;4.360;2023-10-19T07:27:52;18.30;99.90
2391;DHT22;22957;50.824;4.360;2023-10-19T07:30:21;17.90;99.90
2391;DHT22;22957;50.824;4.360;2023-10-19T07:32:51;17.60;99.90
2391;DHT22;22957;50.824;4.360;2023-10-19T07:35:22;17.60;99.90
2391;DHT22;22957;50.824;4.360;2023-10-19T07:37:48;17.50;99.90
2391;DHT22;22957;50.824;4.360;2023-10-19T07:40:15;17.60;99.90
2391;DHT22;22957;50.824;4.360;2023-10-19T07:42:43;17.60;99.90
2391;DHT22;22957;50.824;4.360;2023-10-19T07:45:09;17.60;99.90
2391;DHT22;22957;50.824;4.360;2023-10-19T07:47:40;17.60;99.90
2391;DHT22;22957;50.824;4.360;2023-10-19T07:50:08;17.60;99.90
2391;DHT22;22957;50.824;4.360;2023-10-19T07:52:44;17.80;99.90
2391;DHT22;22957;50.824;4.360;2023-10-19T07:55:12;17.80;99.90
2391;DHT22;22957;50.824;4.360;2023-10-19T07:57:38;18.00;99.90
2391;DHT22;22957;50.824;4.360;2023-10-19T08:00:07;17.70;99.90
2391;DHT22;22957;50.824;4.360;2023-10-19T08:02:36;17.70;99.90
2391;DHT22;22957;50.824;4.360;2023-10-19T08:05:03;17.60;99.90
2391;DHT22;22957;50.824;4.360;2023-10-19T08:07:30;17.80;99.90
2391;DHT22;22957;50.824;4.360;2023-10-19T08:09:55;18.10;99.90
2391;DHT22;22957;50.824;4.360;2023-10-19T08:12:25;18.40;99.90
2391;DHT22;22957;50.824;4.360;2023-10-19T08:14:55;18.40;99.90
2391;DHT22;22957;50.824;4.360;2023-10-19T08:17:21;18.50;99.90
2391;DHT22;22957;50.824;4.360;2023-10-19T08:19:47;18.40;99.90
2391;DHT22;22957;50.824;4.360;2023-10-19T08:22:13;18.50;99.90
2391;DHT22;22957;50.824;4.360;2023-10-19T08:24:40;18.80;99.90
2391;DHT22;22957;50.824;4.360;2023-10-19T08:27:09;18.50;99.90
2391;DHT22;22957;50.824;4.360;2023-10-19T08:29:36;18.20;99.90
2391;DHT22;22957;50.824;4.360;2023-10-19T08:32:02;18.60;99.90
2391;DHT22;22957;50.824;4.360;2023-10-19T08:34:28;18.70;99.90
2391;DHT22;22957;50.824;4.360;2023-10-19T08:36:55;18.70;99.90
2391;DHT22;22957;50.824;4.360;2023-10-19T08:39:21;18.60;99.90
2391;DHT22;22957;50.824;4.360;2023-10-19T08:41:49;18.40;99.90
2391;DHT22;22957;50.824;4.360;2023-10-19T08:44:19;18.40;99.90
2391;DHT22;22957;50.824;4.360;2023-10-19T08:46:45;18.50;99.90
2391;DHT22;22957;50.824;4.360;2023-10-19T08:49:14;18.30;99.90
2391;DHT22;22957;50.824;4.360;2023-10-19T08:51:43;18.30;99.90
2391;DHT22;22957;50.824;4.360;2023-10-19T08:54:14;18.30;99.90
2391;DHT22;22957;50.824;4.360;2023-10-19T08:56:41;18.40;99.90
2391;DHT22;22957;50.824;4.360;2023-10-19T08:59:10;18.50;99.90
2391;DHT22;22957;50.824;4.360;2023-10-19T09:01:41;18.70;99.90
2391;DHT22;22957;50.824;4.360;2023-10-19T09:04:11;18.80;99.90
2391;DHT22;22957;50.824;4.360;2023-10-19T09:06:40;18.80;99.90
2391;DHT22;22957;50.824;4.360;2023-10-19T09:09:09;18.90;99.90
2391;DHT22;22957;50.824;4.360;2023-10-19T09:11:39;18.80;99.90
2391;DHT22;22957;50.824;4.360;2023-10-19T09:14:04;18.60;99.90
2391;DHT22;22957;50.824;4.360;2023-10-19T09:16:31;18.60;99.90
2391;DHT22;22957;50.824;4.360;2023-10-19T09:18:57;18.90;99.90
2391;DHT22;22957;50.824;4.360;2023-10-19T09:21:23;18.80;99.90
2391;DHT22;22957;50.824;4.360;2023-10-19T09:23:56;18.90;99.90
2391;DHT22;22957;50.824;4.360;2023-10-19T09:26:25;18.60;99.90
2391;DHT22;22957;50.824;4.360;2023-10-19T09:28:52;18.80;99.90
2391;DHT22;22957;50.824;4.360;2023-10-19T09:31:19;19.20;99.90
2391;DHT22;22957;50.824;4.360;2023-10-19T09:33:47;19.20;99.90
2391;DHT22;22957;50.824;4.360;2023-10-19T09:36:14;19.10;99.90
2391;DHT22;22957;50.824;4.360;2023-10-19T09:38:47;19.00;99.90
2391;DHT22;22957;50.824;4.360;2023-10-19T09:41:21;19.00;99.90
2391;DHT22;22957;50.824;4.360;2023-10-19T09:43:50;18.90;99.90
2391;DHT22;22957;50.824;4.360;2023-10-19T09:46:37;18.90;99.90
2391;DHT22;22957;50.824;4.360;2023-10-19T09:49:04;18.70;99.90
2391;DHT22;22957;50.824;4.360;2023-10-19T09:51:33;18.90;99.90
2391;DHT22;22957;50.824;4.360;2023-10-19T09:55:14;19.20;99.90
2391;DHT22;22957;50.824;4.360;2023-10-19T09:57:14;19.00;99.90
2391;DHT22;22957;50.824;4.360;2023-10-19T09:59:44;19.40;99.90
2391;DHT22;22957;50.824;4.360;2023-10-19T10:02:15;19.80;99.90
2391;DHT22;22957;50.824;4.360;2023-10-19T10:04:43;19.50;99.90
2391;DHT22;22957;50.824;4.360;2023-10-19T10:07:13;19.70;99.90
2391;DHT22;22957;50.824;4.360;2023-10-19T10:09:40;19.50;99.90
2391;DHT22;22957;50.824;4.360;2023-10-19T10:12:23;19.80;99.90
2391;DHT22;22957;50.824;4.360;2023-10-19T10:14:56;20.10;99.90
2391;DHT22;22957;50.824;4.360;2023-10-19T10:17:25;20.50;99.90
2391;DHT22;22957;50.824;4.360;2023-10-19T10:22:41;20.20;99.90
2391;DHT22;22957;50.824;4.360;2023-10-19T10:25:07;20.50;99.90
2391;DHT22;22957;50.824;4.360;2023-10-19T10:27:36;20.50;99.90
2391;DHT22;22957;50.824;4.360;2023-10-19T10:30:04;20.60;99.90
2391;DHT22;22957;50.824;4.360;2023-10-19T10:32:52;20.40;99.90
2391;DHT22;22957;50.824;4.360;2023-10-19T10:38:06;20.40;99.90
2391;DHT22;22957;50.824;4.360;2023-10-19T10:40:42;20.40;99.90
2391;DHT22;22957;50.824;4.360;2023-10-19T10:43:08;20.40;99.90
2391;DHT22;22957;50.824;4.360;2023-10-19T10:45:34;20.40;99.90
2391;DHT22;22957;50.824;4.360;2023-10-19T10:47:59;20.00;99.90
2391;DHT22;22957;50.824;4.360;2023-10-19T10:50:27;19.90;99.90
2391;DHT22;22957;50.824;4.360;2023-10-19T10:52:54;19.90;99.90
2391;DHT22;22957;50.824;4.360;2023-10-19T10:55:23;20.00;99.90
2391;DHT22;22957;50.824;4.360;2023-10-19T10:57:50;19.90;99.90
2391;DHT22;22957;50.824;4.360;2023-10-19T11:00:16;19.90;99.90
2391;DHT22;22957;50.824;4.360;2023-10-19T11:02:45;20.00;99.90
2391;DHT22;22957;50.824;4.360;2023-10-19T11:05:13;19.70;99.90
2391;DHT22;22957;50.824;4.360;2023-10-19T11:07:40;19.60;99.90
2391;DHT22;22957;50.824;4.360;2023-10-19T11:10:06;19.70;99.90
2391;DHT22;22957;50.824;4.360;2023-10-19T11:12:32;19.50;99.90
2391;DHT22;22957;50.824;4.360;2023-10-19T11:15:00;19.40;99.90
2391;DHT22;22957;50.824;4.360;2023-10-19T11:17:29;19.30;99.90
2391;DHT22;22957;50.824;4.360;2023-10-19T11:19:57;19.40;99.90
2391;DHT22;22957;50.824;4.360;2023-10-19T11:22:26;19.10;99.90
2391;DHT22;22957;50.824;4.360;2023-10-19T11:24:55;19.10;99.90
2391;DHT22;22957;50.824;4.360;2023-10-19T11:27:25;18.90;99.90
2391;DHT22;22957;50.824;4.360;2023-10-19T11:29:59;19.10;99.90
2391;DHT22;22957;50.824;4.360;2023-10-19T11:32:36;19.00;99.90
2391;DHT22;22957;50.824;4.360;2023-10-19T11:35:03;19.10;99.90
2391;DHT22;22957;50.824;4.360;2023-10-19T11:37:29;19.10;99.90
2391;DHT22;22957;50.824;4.360;2023-10-19T11:39:55;19.20;99.90
2391;DHT22;22957;50.824;4.360;2023-10-19T11:42:20;19.00;99.90
2391;DHT22;22957;50.824;4.360;2023-10-19T11:44:46;19.10;99.90
2391;DHT22;22957;50.824;4.360;2023-10-19T11:47:12;19.30;99.90
2391;DHT22;22957;50.824;4.360;2023-10-19T11:49:39;19.40;99.90
2391;DHT22;22957;50.824;4.360;2023-10-19T11:52:07;19.60;99.90
2391;DHT22;22957;50.824;4.360;2023-10-19T11:54:34;19.80;99.90
2391;DHT22;22957;50.824;4.360;2023-10-19T11:57:00;19.60;99.90
2391;DHT22;22957;50.824;4.360;2023-10-19T11:59:25;19.50;99.90
2391;DHT22;22957;50.824;4.360;2023-10-19T12:01:52;19.70;99.90
2391;DHT22;22957;50.824;4.360;2023-10-19T12:04:17;19.50;99.90
2391;DHT22;22957;50.824;4.360;2023-10-19T12:06:43;19.30;99.90
2391;DHT22;22957;50.824;4.360;2023-10-19T12:09:11;19.30;99.90
2391;DHT22;22957;50.824;4.360;2023-10-19T12:11:41;19.10;99.90
2391;DHT22;22957;50.824;4.360;2023-10-19T12:14:06;19.10;99.90
2391;DHT22;22957;50.824;4.360;2023-10-19T12:16:37;18.90;99.90
2391;DHT22;22957;50.824;4.360;2023-10-19T12:19:05;19.00;99.90
2391;DHT22;22957;50.824;4.360;2023-10-19T12:21:30;19.10;99.90
2391;DHT22;22957;50.824;4.360;2023-10-19T12:23:58;19.00;99.90
2391;DHT22;22957;50.824;4.360;2023-10-19T12:26:26;18.90;99.90
2391;DHT22;22957;50.824;4.360;2023-10-19T12:28:52;19.00;99.90
2391;DHT22;22957;50.824;4.360;2023-10-19T12:31:18;18.90;99.90
2391;DHT22;22957;50.824;4.360;2023-10-19T12:33:44;18.80;99.90
2391;DHT22;22957;50.824;4.360;2023-10-19T12:36:10;18.70;99.90
2391;DHT22;22957;50.824;4.360;2023-10-19T12:38:45;18.90;99.90
2391;DHT22;22957;50.824;4.360;2023-10-19T12:41:11;19.20;99.90
2391;DHT22;22957;50.824;4.360;2023-10-19T12:43:36;19.40;99.90
2391;DHT22;22957;50.824;4.360;2023-10-19T12:46:02;19.70;99.90
2391;DHT22;22957;50.824;4.360;2023-10-19T12:48:28;19.90;99.90
2391;DHT22;22957;50.824;4.360;2023-10-19T12:50:59;20.10;99.90
2391;DHT22;22957;50.824;4.360;2023-10-19T12:53:27;20.20;99.90
2391;DHT22;22957;50.824;4.360;2023-10-19T12:55:52;20.30;99.90
2391;DHT22;22957;50.824;4.360;2023-10-19T12:58:18;20.60;99.90
2391;DHT22;22957;50.824;4.360;2023-10-19T13:00:45;20.60;99.90
2391;DHT22;22957;50.824;4.360;2023-10-19T13:03:13;20.60;99.90
2391;DHT22;22957;50.824;4.360;2023-10-19T13:05:40;20.60;99.90
2391;DHT22;22957;50.824;4.360;2023-10-19T13:08:12;20.60;99.90
2391;DHT22;22957;50.824;4.360;2023-10-19T13:10:46;21.00;99.90
2391;DHT22;22957;50.824;4.360;2023-10-19T13:13:13;21.10;99.90
2391;DHT22;22957;50.824;4.360;2023-10-19T13:15:41;21.20;99.90
2391;DHT22;22957;50.824;4.360;2023-10-19T13:18:09;21.00;99.90
2391;DHT22;22957;50.824;4.360;2023-10-19T13:20:50;21.20;99.90
2391;DHT22;22957;50.824;4.360;2023-10-19T13:23:19;21.00;99.90
2391;DHT22;22957;50.824;4.360;2023-10-19T13:25:47;20.20;99.90
2391;DHT22;22957;50.824;4.360;2023-10-19T13:28:20;20.30;99.90
2391;DHT22;22957;50.824;4.360;2023-10-19T13:30:49;20.60;99.90
2391;DHT22;22957;50.824;4.360;2023-10-19T13:33:17;20.90;99.90
2391;DHT22;22957;50.824;4.360;2023-10-19T13:35:44;21.50;99.90
2391;DHT22;22957;50.824;4.360;2023-10-19T13:38:11;21.20;99.90
2391;DHT22;22957;50.824;4.360;2023-10-19T13:40:37;21.30;99.90
2391;DHT22;22957;50.824;4.360;2023-10-19T13:43:04;21.30;99.90
2391;DHT22;22957;50.824;4.360;2023-10-19T13:45:35;21.60;99.90
2391;DHT22;22957;50.824;4.360;2023-10-19T13:48:05;21.50;99.90
2391;DHT22;22957;50.824;4.360;2023-10-19T13:50:32;21.60;99.90
2391;DHT22;22957;50.824;4.360;2023-10-19T13:52:58;20.80;99.90
2391;DHT22;22957;50.824;4.360;2023-10-19T13:55:26;20.90;99.90
2391;DHT22;22957;50.824;4.360;2023-10-19T13:57:51;20.70;99.90
2391;DHT22;22957;50.824;4.360;2023-10-19T14:00:18;20.80;99.90
2391;DHT22;22957;50.824;4.360;2023-10-19T14:02:56;20.20;99.90
2391;DHT22;22957;50.824;4.360;2023-10-19T14:05:23;20.30;99.90
2391;DHT22;22957;50.824;4.360;2023-10-19T14:07:50;20.40;99.90
2391;DHT22;22957;50.824;4.360;2023-10-19T14:10:17;20.60;99.90
2391;DHT22;22957;50.824;4.360;2023-10-19T14:12:45;20.00;99.90
2391;DHT22;22957;50.824;4.360;2023-10-19T14:15:19;20.50;99.90
2391;DHT22;22957;50.824;4.360;2023-10-19T14:17:46;20.60;99.90
2391;DHT22;22957;50.824;4.360;2023-10-19T14:20:13;20.70;99.90
2391;DHT22;22957;50.824;4.360;2023-10-19T14:22:48;20.50;99.90
2391;DHT22;22957;50.824;4.360;2023-10-19T14:25:14;20.50;99.90
2391;DHT22;22957;50.824;4.360;2023-10-19T14:27:41;20.50;99.90
2391;DHT22;22957;50.824;4.360;2023-10-19T14:30:18;20.20;99.90
2391;DHT22;22957;50.824;4.360;2023-10-19T14:32:47;20.10;99.90
2391;DHT22;22957;50.824;4.360;2023-10-19T14:35:15;19.80;99.90
2391;DHT22;22957;50.824;4.360;2023-10-19T14:37:43;19.90;99.90
2391;DHT22;22957;50.824;4.360;2023-10-19T14:40:14;19.90;99.90
2391;DHT22;22957;50.824;4.360;2023-10-19T14:42:41;20.10;99.90
2391;DHT22;22957;50.824;4.360;2023-10-19T14:45:08;20.00;99.90
2391;DHT22;22957;50.824;4.360;2023-10-19T14:47:36;20.20;99.90
2391;DHT22;22957;50.824;4.360;2023-10-19T14:50:03;20.10;99.90
2391;DHT22;22957;50.824;4.360;2023-10-19T14:52:29;19.90;99.90
2391;DHT22;22957;50.824;4.360;2023-10-19T14:54:54;20.40;99.90
2391;DHT22;22957;50.824;4.360;2023-10-19T14:57:21;20.20;99.90
2391;DHT22;22957;50.824;4.360;2023-10-19T14:59:47;20.30;99.90
2391;DHT22;22957;50.824;4.360;2023-10-19T15:02:12;20.10;99.90
2391;DHT22;22957;50.824;4.360;2023-10-19T15:04:39;20.30;99.90
2391;DHT22;22957;50.824;4.360;2023-10-19T15:07:05;20.20;99.90
2391;DHT22;22957;50.824;4.360;2023-10-19T15:09:30;20.20;99.90
2391;DHT22;22957;50.824;4.360;2023-10-19T15:11:58;20.10;99.90
2391;DHT22;22957;50.824;4.360;2023-10-19T15:14:24;20.20;99.90
2391;DHT22;22957;50.824;4.360;2023-10-19T15:16:50;20.20;99.90
2391;DHT22;22957;50.824;4.360;2023-10-19T15:19:16;20.10;99.90
2391;DHT22;22957;50.824;4.360;2023-10-19T15:21:44;19.90;99.90
2391;DHT22;22957;50.824;4.360;2023-10-19T15:24:10;19.90;99.90
2391;DHT22;22957;50.824;4.360;2023-10-19T15:26:38;19.70;99.90
2391;DHT22;22957;50.824;4.360;2023-10-19T15:29:04;19.50;99.90
2391;DHT22;22957;50.824;4.360;2023-10-19T15:31:30;19.70;99.90
2391;DHT22;22957;50.824;4.360;2023-10-19T15:33:56;19.70;99.90
2391;DHT22;22957;50.824;4.360;2023-10-19T15:36:22;19.80;99.90
2391;DHT22;22957;50.824;4.360;2023-10-19T15:38:48;20.00;99.90
2391;DHT22;22957;50.824;4.360;2023-10-19T15:41:15;20.20;99.90
2391;DHT22;22957;50.824;4.360;2023-10-19T15:43:41;20.00;99.90
2391;DHT22;22957;50.824;4.360;2023-10-19T15:46:07;20.00;99.90
2391;DHT22;22957;50.824;4.360;2023-10-19T15:48:38;19.60;99.90
2391;DHT22;22957;50.824;4.360;2023-10-19T15:51:05;19.40;99.90
2391;DHT22;22957;50.824;4.360;2023-10-19T15:53:33;19.30;99.90
2391;DHT22;22957;50.824;4.360;2023-10-19T15:56:00;19.10;99.90
2391;DHT22;22957;50.824;4.360;2023-10-19T15:58:25;19.10;99.90